Terminal Aerodrome Forecast
Issued by NWS

Home | Current Version | Previous Version | Text Only | Print | Product List | Glossary On
Versions: 1 2 3 4 5 6 7 8 9 10 11 12 13
000
FTUS45 KABQ 212300
TAFSAF
TAF
KSAF 212321Z 2200/2224 14018G26KT P6SM BKN070
     FM220300 12012KT P6SM VCSH BKN050
     FM221100 14008KT P6SM OVC030
     FM221700 17009KT P6SM BKN050
      TEMPO 2220/2224 5SM -TSRA OVC030CB=

USA.gov is the U.S. government's official web portal to all federal, state and local government web resources and services.